sensor_id;sensor_type;location;lat;lon;timestamp;pressure;altitude;pressure_sealevel;temperature;humidity
23473;BME280;11909;52.516;13.564;2023-04-25T00:00:22;99931.94;;;8.95;75.88
23473;BME280;11909;52.516;13.564;2023-04-25T00:02:51;99944.59;;;8.91;76.34
23473;BME280;11909;52.516;13.564;2023-04-25T00:05:19;99939.13;;;8.91;76.00
23473;BME280;11909;52.516;13.564;2023-04-25T00:07:49;99949.16;;;9.00;74.81
23473;BME280;11909;52.516;13.564;2023-04-25T00:10:18;99939.13;;;8.91;74.79
23473;BME280;11909;52.516;13.564;2023-04-25T00:12:45;99946.50;;;8.90;74.60
23473;BME280;11909;52.516;13.564;2023-04-25T00:15:14;99942.41;;;8.87;75.02
23473;BME280;11909;52.516;13.564;2023-04-25T00:17:42;99941.94;;;8.80;75.53
23473;BME280;11909;52.516;13.564;2023-04-25T00:20:13;99937.22;;;8.86;75.00
23473;BME280;11909;52.516;13.564;2023-04-25T00:22:41;99935.03;;;8.88;74.24
23473;BME280;11909;52.516;13.564;2023-04-25T00:25:09;99940.34;;;8.74;74.06
23473;BME280;11909;52.516;13.564;2023-04-25T00:27:37;99942.00;;;8.75;73.86
23473;BME280;11909;52.516;13.564;2023-04-25T00:30:06;99944.78;;;8.70;74.30
23473;BME280;11909;52.516;13.564;2023-04-25T00:32:34;99952.47;;;8.63;74.36
23473;BME280;11909;52.516;13.564;2023-04-25T00:35:01;99960.66;;;8.68;73.83
23473;BME280;11909;52.516;13.564;2023-04-25T00:37:31;99951.38;;;8.64;73.62
23473;BME280;11909;52.516;13.564;2023-04-25T00:39:59;99947.53;;;8.65;73.25
23473;BME280;11909;52.516;13.564;2023-04-25T00:42:27;99937.16;;;8.67;73.16
23473;BME280;11909;52.516;13.564;2023-04-25T00:44:56;99951.38;;;8.64;73.35
23473;BME280;11909;52.516;13.564;2023-04-25T00:47:25;99935.28;;;8.62;73.10
23473;BME280;11909;52.516;13.564;2023-04-25T00:49:53;99946.41;;;8.71;72.94
23473;BME280;11909;52.516;13.564;2023-04-25T00:52:20;99932.19;;;8.69;72.98
23473;BME280;11909;52.516;13.564;2023-04-25T00:54:49;99939.59;;;8.68;73.13
23473;BME280;11909;52.516;13.564;2023-04-25T00:57:17;99939.31;;;8.70;72.91
23473;BME280;11909;52.516;13.564;2023-04-25T00:59:45;99947.78;;;8.68;72.90
23473;BME280;11909;52.516;13.564;2023-04-25T01:02:14;99936.66;;;8.59;73.38
23473;BME280;11909;52.516;13.564;2023-04-25T01:04:41;99930.28;;;8.69;73.09
23473;BME280;11909;52.516;13.564;2023-04-25T01:07:09;99942.00;;;8.75;72.61
23473;BME280;11909;52.516;13.564;2023-04-25T01:09:38;99934.94;;;8.69;73.53
23473;BME280;11909;52.516;13.564;2023-04-25T01:12:07;99938.53;;;8.64;73.33
23473;BME280;11909;52.516;13.564;2023-04-25T01:14:35;99936.84;;;8.68;73.72
23473;BME280;11909;52.516;13.564;2023-04-25T01:17:03;99932.28;;;8.58;74.30
23473;BME280;11909;52.516;13.564;2023-04-25T01:19:31;99935.75;;;8.69;73.14
23473;BME280;11909;52.516;13.564;2023-04-25T01:22:02;99932.69;;;8.76;73.34
23473;BME280;11909;52.516;13.564;2023-04-25T01:24:31;99926.53;;;8.60;73.75
23473;BME280;11909;52.516;13.564;2023-04-25T01:26:59;99927.00;;;8.67;73.78
23473;BME280;11909;52.516;13.564;2023-04-25T01:29:29;99946.94;;;8.73;72.97
23473;BME280;11909;52.516;13.564;2023-04-25T01:31:57;99934.94;;;8.69;73.15
23473;BME280;11909;52.516;13.564;2023-04-25T01:34:26;99934.41;;;8.67;73.52
23473;BME280;11909;52.516;13.564;2023-04-25T01:36:53;99938.81;;;8.63;73.52
23473;BME280;11909;52.516;13.564;2023-04-25T01:39:23;99926.22;;;8.61;73.47
23473;BME280;11909;52.516;13.564;2023-04-25T01:41:51;99926.53;;;8.60;73.69
23473;BME280;11909;52.516;13.564;2023-04-25T01:44:19;99930.13;;;8.55;73.90
23473;BME280;11909;52.516;13.564;2023-04-25T01:46:47;99926.53;;;8.60;74.19
23473;BME280;11909;52.516;13.564;2023-04-25T01:49:14;99928.94;;;8.67;73.43
23473;BME280;11909;52.516;13.564;2023-04-25T01:51:43;99931.09;;;8.70;73.35
23473;BME280;11909;52.516;13.564;2023-04-25T01:54:11;99928.88;;;8.72;73.29
23473;BME280;11909;52.516;13.564;2023-04-25T01:56:40;99937.16;;;8.67;73.24
23473;BME280;11909;52.516;13.564;2023-04-25T01:59:08;99926.81;;;8.58;73.63
23473;BME280;11909;52.516;13.564;2023-04-25T02:01:36;99930.91;;;8.61;73.47
23473;BME280;11909;52.516;13.564;2023-04-25T02:04:04;99943.47;;;8.62;73.39
23473;BME280;11909;52.516;13.564;2023-04-25T02:06:32;99937.75;;;8.58;73.34
23473;BME280;11909;52.516;13.564;2023-04-25T02:09:00;99935.53;;;8.66;73.54
23473;BME280;11909;52.516;13.564;2023-04-25T02:11:27;99935.75;;;8.69;73.47
23473;BME280;11909;52.516;13.564;2023-04-25T02:13:57;99938.53;;;8.64;73.82
23473;BME280;11909;52.516;13.564;2023-04-25T02:16:24;99941.78;;;8.66;73.71
23473;BME280;11909;52.516;13.564;2023-04-25T02:18:52;99942.31;;;8.68;73.52
23473;BME280;11909;52.516;13.564;2023-04-25T02:21:20;99945.38;;;8.61;73.44
23473;BME280;11909;52.516;13.564;2023-04-25T02:23:48;99939.09;;;8.61;73.28
23473;BME280;11909;52.516;13.564;2023-04-25T02:26:18;99947.63;;;8.54;73.72
23473;BME280;11909;52.516;13.564;2023-04-25T02:28:47;99938.81;;;8.63;73.38
23473;BME280;11909;52.516;13.564;2023-04-25T02:31:16;99942.63;;;8.67;73.45
23473;BME280;11909;52.516;13.564;2023-04-25T02:33:44;99945.38;;;8.61;73.17
23473;BME280;11909;52.516;13.564;2023-04-25T02:36:12;99940.75;;;8.62;73.80
23473;BME280;11909;52.516;13.564;2023-04-25T02:38:40;99937.75;;;8.58;73.53
23473;BME280;11909;52.516;13.564;2023-04-25T02:41:08;99939.69;;;8.58;73.44
23473;BME280;11909;52.516;13.564;2023-04-25T02:43:36;99939.91;;;8.61;73.78
23473;BME280;11909;52.516;13.564;2023-04-25T02:46:04;99942.66;;;8.61;73.47
23473;BME280;11909;52.516;13.564;2023-04-25T02:48:33;99932.59;;;8.57;74.17
23473;BME280;11909;52.516;13.564;2023-04-25T02:51:01;99929.28;;;8.60;74.15
23473;BME280;11909;52.516;13.564;2023-04-25T02:53:28;99931.44;;;8.63;73.63
23473;BME280;11909;52.516;13.564;2023-04-25T02:55:56;99934.22;;;8.58;73.78
23473;BME280;11909;52.516;13.564;2023-04-25T02:58:25;99934.78;;;8.55;73.98
23473;BME280;11909;52.516;13.564;2023-04-25T03:00:53;99935.34;;;8.52;74.25
23473;BME280;11909;52.516;13.564;2023-04-25T03:03:21;99923.63;;;8.46;74.62
23473;BME280;11909;52.516;13.564;2023-04-25T03:05:51;99935.09;;;8.48;74.28
23473;BME280;11909;52.516;13.564;2023-04-25T03:08:19;99939.16;;;8.56;74.08
23473;BME280;11909;52.516;13.564;2023-04-25T03:10:47;99928.75;;;8.53;74.71
23473;BME280;11909;52.516;13.564;2023-04-25T03:13:16;99931.25;;;8.49;74.56
23473;BME280;11909;52.516;13.564;2023-04-25T03:15:44;99932.59;;;8.52;74.54
23473;BME280;11909;52.516;13.564;2023-04-25T03:18:12;99930.97;;;8.51;75.00
23473;BME280;11909;52.516;13.564;2023-04-25T03:20:40;99929.88;;;8.52;74.85
23473;BME280;11909;52.516;13.564;2023-04-25T03:23:10;99930.38;;;8.59;74.46
23473;BME280;11909;52.516;13.564;2023-04-25T03:25:38;99934.50;;;8.56;74.31
23473;BME280;11909;52.516;13.564;2023-04-25T03:28:06;99932.84;;;8.55;74.01
23473;BME280;11909;52.516;13.564;2023-04-25T03:30:34;99929.31;;;8.55;74.51
23473;BME280;11909;52.516;13.564;2023-04-25T03:33:02;99926.34;;;8.51;74.25
23473;BME280;11909;52.516;13.564;2023-04-25T03:35:30;99927.69;;;8.49;74.29
23473;BME280;11909;52.516;13.564;2023-04-25T03:37:58;99927.44;;;8.50;74.58
23473;BME280;11909;52.516;13.564;2023-04-25T03:40:27;99942.78;;;8.41;74.30
23473;BME280;11909;52.516;13.564;2023-04-25T03:42:55;99941.44;;;8.38;75.00
23473;BME280;11909;52.516;13.564;2023-04-25T03:45:23;99932.72;;;8.36;75.63
23473;BME280;11909;52.516;13.564;2023-04-25T03:47:51;99932.72;;;8.36;76.21
23473;BME280;11909;52.516;13.564;2023-04-25T03:50:19;99941.31;;;8.59;74.32
23473;BME280;11909;52.516;13.564;2023-04-25T03:52:46;99941.91;;;8.51;74.96
23473;BME280;11909;52.516;13.564;2023-04-25T03:55:15;99941.91;;;8.56;75.38
23473;BME280;11909;52.516;13.564;2023-04-25T03:57:44;99945.75;;;8.50;74.45
23473;BME280;11909;52.516;13.564;2023-04-25T04:00:13;99945.78;;;8.44;75.19
23473;BME280;11909;52.516;13.564;2023-04-25T04:02:41;99949.31;;;8.50;75.37
23473;BME280;11909;52.516;13.564;2023-04-25T04:05:11;99952.34;;;8.43;75.05
23473;BME280;11909;52.516;13.564;2023-04-25T04:07:39;99948.50;;;8.44;75.10
23473;BME280;11909;52.516;13.564;2023-04-25T04:10:09;99957.56;;;8.40;75.35
23473;BME280;11909;52.516;13.564;2023-04-25T04:12:37;99957.00;;;8.43;75.75
23473;BME280;11909;52.516;13.564;2023-04-25T04:15:08;99955.91;;;8.39;76.29
23473;BME280;11909;52.516;13.564;2023-04-25T04:17:36;99954.06;;;8.34;75.69
23473;BME280;11909;52.516;13.564;2023-04-25T04:20:05;99962.50;;;8.38;76.37
23473;BME280;11909;52.516;13.564;2023-04-25T04:22:34;99962.69;;;8.46;75.69
23473;BME280;11909;52.516;13.564;2023-04-25T04:25:03;99956.41;;;8.51;74.73
23473;BME280;11909;52.516;13.564;2023-04-25T04:27:32;99967.91;;;8.48;74.82
23473;BME280;11909;52.516;13.564;2023-04-25T04:30:00;99963.91;;;8.35;75.66
23473;BME280;11909;52.516;13.564;2023-04-25T04:32:30;99961.66;;;8.42;75.22
23473;BME280;11909;52.516;13.564;2023-04-25T04:34:59;99971.00;;;8.36;76.02
23473;BME280;11909;52.516;13.564;2023-04-25T04:37:27;99965.16;;;8.48;75.21
23473;BME280;11909;52.516;13.564;2023-04-25T04:39:55;99973.41;;;8.43;76.13
23473;BME280;11909;52.516;13.564;2023-04-25T04:42:22;99973.09;;;8.55;75.74
23473;BME280;11909;52.516;13.564;2023-04-25T04:44:52;99976.28;;;8.62;74.97
23473;BME280;11909;52.516;13.564;2023-04-25T04:47:21;99975.78;;;8.60;74.38
23473;BME280;11909;52.516;13.564;2023-04-25T04:49:51;99974.19;;;8.54;74.61
23473;BME280;11909;52.516;13.564;2023-04-25T04:52:19;99984.06;;;8.44;75.01
23473;BME280;11909;52.516;13.564;2023-04-25T04:54:47;99978.06;;;8.42;75.76
23473;BME280;11909;52.516;13.564;2023-04-25T04:57:15;99979.44;;;8.40;76.31
23473;BME280;11909;52.516;13.564;2023-04-25T04:59:43;99973.97;;;8.40;76.99
23473;BME280;11909;52.516;13.564;2023-04-25T05:02:12;99981.31;;;8.44;76.79
23473;BME280;11909;52.516;13.564;2023-04-25T05:04:40;99983.72;;;8.56;75.02
23473;BME280;11909;52.516;13.564;2023-04-25T05:07:10;99968.72;;;8.54;74.83
23473;BME280;11909;52.516;13.564;2023-04-25T05:09:38;99975.25;;;8.53;74.73
23473;BME280;11909;52.516;13.564;2023-04-25T05:12:06;99983.72;;;8.56;75.30
23473;BME280;11909;52.516;13.564;2023-04-25T05:14:34;99986.75;;;8.55;75.52
23473;BME280;11909;52.516;13.564;2023-04-25T05:17:02;99988.09;;;8.57;74.74
23473;BME280;11909;52.516;13.564;2023-04-25T05:19:31;99988.38;;;8.56;75.00
23473;BME280;11909;52.516;13.564;2023-04-25T05:21:59;99982.94;;;8.45;75.63
23473;BME280;11909;52.516;13.564;2023-04-25T05:24:28;99984.88;;;8.50;75.47
23473;BME280;11909;52.516;13.564;2023-04-25T05:26:57;99980.53;;;8.39;76.49
23473;BME280;11909;52.516;13.564;2023-04-25T05:29:25;99987.63;;;8.40;76.18
23473;BME280;11909;52.516;13.564;2023-04-25T05:31:52;99988.94;;;8.47;75.60
23473;BME280;11909;52.516;13.564;2023-04-25T05:34:21;100002.59;;;8.58;75.14
23473;BME280;11909;52.516;13.564;2023-04-25T05:36:49;99989.78;;;8.48;75.47
23473;BME280;11909;52.516;13.564;2023-04-25T05:39:17;99991.72;;;8.42;75.99
23473;BME280;11909;52.516;13.564;2023-04-25T05:41:46;99999.97;;;8.37;76.94
23473;BME280;11909;52.516;13.564;2023-04-25T05:44:14;100000.19;;;8.46;76.25
23473;BME280;11909;52.516;13.564;2023-04-25T05:46:42;100001.31;;;8.40;76.82
23473;BME280;11909;52.516;13.564;2023-04-25T05:49:10;100002.91;;;8.46;77.02
23473;BME280;11909;52.516;13.564;2023-04-25T05:51:38;100006.97;;;8.59;76.00
23473;BME280;11909;52.516;13.564;2023-04-25T05:54:05;100001.28;;;8.50;75.78
23473;BME280;11909;52.516;13.564;2023-04-25T05:56:34;100001.00;;;8.46;76.11
23473;BME280;11909;52.516;13.564;2023-04-25T05:59:04;100002.94;;;8.41;76.31
23473;BME280;11909;52.516;13.564;2023-04-25T06:01:32;100003.50;;;8.43;76.98
23473;BME280;11909;52.516;13.564;2023-04-25T06:04:00;100008.06;;;8.53;76.81
23473;BME280;11909;52.516;13.564;2023-04-25T06:06:28;100006.13;;;8.58;76.19
23473;BME280;11909;52.516;13.564;2023-04-25T06:08:56;100017.06;;;8.58;76.59
23473;BME280;11909;52.516;13.564;2023-04-25T06:11:24;100018.44;;;8.61;76.42
23473;BME280;11909;52.516;13.564;2023-04-25T06:13:52;100014.66;;;8.52;76.76
23473;BME280;11909;52.516;13.564;2023-04-25T06:16:22;100013.53;;;8.53;77.66
23473;BME280;11909;52.516;13.564;2023-04-25T06:18:52;100023.38;;;8.59;77.90
23473;BME280;11909;52.516;13.564;2023-04-25T06:21:20;100021.16;;;8.61;77.30
23473;BME280;11909;52.516;13.564;2023-04-25T06:23:48;100029.06;;;8.63;77.02
23473;BME280;11909;52.516;13.564;2023-04-25T06:26:16;100023.06;;;8.66;76.43
23473;BME280;11909;52.516;13.564;2023-04-25T06:28:44;100014.34;;;8.58;77.15
23473;BME280;11909;52.516;13.564;2023-04-25T06:31:12;100018.50;;;8.45;78.54
23473;BME280;11909;52.516;13.564;2023-04-25T06:33:41;100026.63;;;8.61;77.98
23473;BME280;11909;52.516;13.564;2023-04-25T06:36:10;100018.22;;;8.52;78.45
23473;BME280;11909;52.516;13.564;2023-04-25T06:38:38;100022.50;;;8.64;77.41
23473;BME280;11909;52.516;13.564;2023-04-25T06:41:06;100021.97;;;8.61;77.80
23473;BME280;11909;52.516;13.564;2023-04-25T06:43:34;100017.94;;;8.54;78.52
23473;BME280;11909;52.516;13.564;2023-04-25T06:46:01;100025.53;;;8.62;78.51
23473;BME280;11909;52.516;13.564;2023-04-25T06:48:29;100019.03;;;8.47;79.14
23473;BME280;11909;52.516;13.564;2023-04-25T06:50:59;100016.34;;;8.42;79.93
23473;BME280;11909;52.516;13.564;2023-04-25T06:53:26;100023.38;;;8.59;79.68
23473;BME280;11909;52.516;13.564;2023-04-25T06:55:54;100015.75;;;8.51;79.90
23473;BME280;11909;52.516;13.564;2023-04-25T06:58:23;100010.53;;;8.54;80.59
23473;BME280;11909;52.516;13.564;2023-04-25T07:00:52;100018.16;;;8.57;79.71
23473;BME280;11909;52.516;13.564;2023-04-25T07:03:20;100016.25;;;8.58;80.06
23473;BME280;11909;52.516;13.564;2023-04-25T07:05:49;100010.78;;;8.58;79.42
23473;BME280;11909;52.516;13.564;2023-04-25T07:08:18;100002.59;;;8.53;80.43
23473;BME280;11909;52.516;13.564;2023-04-25T07:10:47;100023.06;;;8.66;80.03
23473;BME280;11909;52.516;13.564;2023-04-25T07:13:15;100022.31;;;8.55;80.51
23473;BME280;11909;52.516;13.564;2023-04-25T07:15:43;100020.84;;;8.63;80.85
23473;BME280;11909;52.516;13.564;2023-04-25T07:18:11;100027.69;;;8.65;80.33
23473;BME280;11909;52.516;13.564;2023-04-25T07:20:39;100030.69;;;8.64;80.67
23473;BME280;11909;52.516;13.564;2023-04-25T07:23:07;100032.94;;;8.56;80.76
23473;BME280;11909;52.516;13.564;2023-04-25T07:25:36;100034.00;;;8.60;80.82
23473;BME280;11909;52.516;13.564;2023-04-25T07:28:04;100035.31;;;8.68;80.49
23473;BME280;11909;52.516;13.564;2023-04-25T07:30:32;100046.84;;;8.65;80.10
23473;BME280;11909;52.516;13.564;2023-04-25T07:33:01;100038.38;;;8.61;80.94
23473;BME280;11909;52.516;13.564;2023-04-25T07:35:29;100038.63;;;8.65;81.10
23473;BME280;11909;52.516;13.564;2023-04-25T07:37:57;100053.44;;;8.59;80.40
23473;BME280;11909;52.516;13.564;2023-04-25T07:40:25;100048.56;;;8.56;82.11
23473;BME280;11909;52.516;13.564;2023-04-25T07:42:55;100055.84;;;8.71;81.05
23473;BME280;11909;52.516;13.564;2023-04-25T07:45:23;100060.25;;;8.61;80.78
23473;BME280;11909;52.516;13.564;2023-04-25T07:47:51;100060.50;;;8.65;80.66
23473;BME280;11909;52.516;13.564;2023-04-25T07:50:19;100062.47;;;8.59;80.14
23473;BME280;11909;52.516;13.564;2023-04-25T07:52:47;100073.94;;;8.61;78.62
23473;BME280;11909;52.516;13.564;2023-04-25T07:55:15;100070.28;;;8.77;77.80
23473;BME280;11909;52.516;13.564;2023-04-25T07:57:44;100075.81;;;8.66;78.27
23473;BME280;11909;52.516;13.564;2023-04-25T08:00:14;100082.34;;;8.70;77.13
23473;BME280;11909;52.516;13.564;2023-04-25T08:02:42;100085.66;;;8.67;77.18
23473;BME280;11909;52.516;13.564;2023-04-25T08:05:11;100090.59;;;8.65;77.89
23473;BME280;11909;52.516;13.564;2023-04-25T08:07:41;100095.16;;;8.80;75.41
23473;BME280;11909;52.516;13.564;2023-04-25T08:10:09;100092.19;;;8.77;75.27
23473;BME280;11909;52.516;13.564;2023-04-25T08:12:38;100102.56;;;8.80;75.70
23473;BME280;11909;52.516;13.564;2023-04-25T08:15:07;100092.66;;;8.84;76.70
23473;BME280;11909;52.516;13.564;2023-04-25T08:17:37;100097.31;;;8.83;75.50
23473;BME280;11909;52.516;13.564;2023-04-25T08:20:06;100107.50;;;8.78;75.07
23473;BME280;11909;52.516;13.564;2023-04-25T08:22:35;100102.69;;;8.59;76.83
23473;BME280;11909;52.516;13.564;2023-04-25T08:25:04;100104.00;;;8.67;76.09
23473;BME280;11909;52.516;13.564;2023-04-25T08:27:32;100113.81;;;8.73;75.13
23473;BME280;11909;52.516;13.564;2023-04-25T08:30:00;100117.72;;;9.01;74.19
23473;BME280;11909;52.516;13.564;2023-04-25T08:32:29;100131.91;;;9.09;70.30
23473;BME280;11909;52.516;13.564;2023-04-25T08:34:59;100130.38;;;8.92;72.24
23473;BME280;11909;52.516;13.564;2023-04-25T08:37:28;100137.44;;;8.98;72.29
23473;BME280;11909;52.516;13.564;2023-04-25T08:39:55;100139.63;;;8.96;70.96
23473;BME280;11909;52.516;13.564;2023-04-25T08:42:24;100138.25;;;8.99;71.19
23473;BME280;11909;52.516;13.564;2023-04-25T08:44:55;100144.47;;;9.10;73.29
23473;BME280;11909;52.516;13.564;2023-04-25T08:47:22;100147.75;;;9.12;70.99
23473;BME280;11909;52.516;13.564;2023-04-25T08:49:53;100160.84;;;9.15;68.97
23473;BME280;11909;52.516;13.564;2023-04-25T08:52:23;100161.69;;;9.15;69.00
23473;BME280;11909;52.516;13.564;2023-04-25T08:54:54;100155.91;;;9.17;69.98
23473;BME280;11909;52.516;13.564;2023-04-25T08:57:23;100172.38;;;9.12;64.76
23473;BME280;11909;52.516;13.564;2023-04-25T08:59:51;100168.59;;;9.08;66.12
23473;BME280;11909;52.516;13.564;2023-04-25T09:02:20;100181.16;;;9.09;65.20
23473;BME280;11909;52.516;13.564;2023-04-25T09:04:49;100180.31;;;9.13;63.27
23473;BME280;11909;52.516;13.564;2023-04-25T09:07:17;100180.03;;;9.15;65.71
23473;BME280;11909;52.516;13.564;2023-04-25T09:09:48;100188.66;;;9.32;64.29
23473;BME280;11909;52.516;13.564;2023-04-25T09:12:18;100194.09;;;9.38;62.04
23473;BME280;11909;52.516;13.564;2023-04-25T09:15:00;100200.09;;;9.40;61.77
23473;BME280;11909;52.516;13.564;2023-04-25T09:17:29;100202.41;;;9.57;62.44
23473;BME280;11909;52.516;13.564;2023-04-25T09:20:06;100204.34;;;9.56;60.77
23473;BME280;11909;52.516;13.564;2023-04-25T09:22:34;100201.03;;;9.59;61.58
23473;BME280;11909;52.516;13.564;2023-04-25T09:25:08;100209.19;;;9.70;61.15
23473;BME280;11909;52.516;13.564;2023-04-25T09:27:36;100211.38;;;9.97;60.18
23473;BME280;11909;52.516;13.564;2023-04-25T09:30:05;100217.34;;;10.04;56.62
23473;BME280;11909;52.516;13.564;2023-04-25T09:32:33;100220.63;;;10.07;58.15
23473;BME280;11909;52.516;13.564;2023-04-25T09:35:01;100231.22;;;10.13;56.37
23473;BME280;11909;52.516;13.564;2023-04-25T09:37:50;100238.97;;;10.06;54.76
23473;BME280;11909;52.516;13.564;2023-04-25T09:40:19;100229.16;;;10.29;55.41
23473;BME280;11909;52.516;13.564;2023-04-25T09:42:47;100230.13;;;10.39;54.10
23473;BME280;11909;52.516;13.564;2023-04-25T09:45:15;100236.34;;;10.50;55.78
23473;BME280;11909;52.516;13.564;2023-04-25T09:47:43;100234.72;;;10.73;53.39
23473;BME280;11909;52.516;13.564;2023-04-25T09:50:15;100240.31;;;10.87;51.79
23473;BME280;11909;52.516;13.564;2023-04-25T09:52:43;100229.00;;;10.88;53.23
23473;BME280;11909;52.516;13.564;2023-04-25T09:55:12;100249.47;;;10.77;52.48
23473;BME280;11909;52.516;13.564;2023-04-25T09:57:41;100250.53;;;10.57;51.48
23473;BME280;11909;52.516;13.564;2023-04-25T10:00:12;100244.34;;;10.46;52.13
23473;BME280;11909;52.516;13.564;2023-04-25T10:02:42;100242.13;;;10.48;52.68
23473;BME280;11909;52.516;13.564;2023-04-25T10:05:11;100251.38;;;10.28;51.28
23473;BME280;11909;52.516;13.564;2023-04-25T10:07:40;100253.84;;;10.29;48.83
23473;BME280;11909;52.516;13.564;2023-04-25T10:10:08;100240.69;;;10.26;51.91
23473;BME280;11909;52.516;13.564;2023-04-25T10:12:38;100246.34;;;10.40;51.57
23473;BME280;11909;52.516;13.564;2023-04-25T10:15:08;100250.06;;;10.50;51.50
23473;BME280;11909;52.516;13.564;2023-04-25T10:17:36;100249.56;;;10.47;50.44
23473;BME280;11909;52.516;13.564;2023-04-25T10:20:07;100265.50;;;10.45;49.80
23473;BME280;11909;52.516;13.564;2023-04-25T10:22:39;100270.16;;;10.69;47.80
23473;BME280;11909;52.516;13.564;2023-04-25T10:25:09;100263.66;;;10.60;49.57
23473;BME280;11909;52.516;13.564;2023-04-25T10:27:38;100268.81;;;10.67;49.37
23473;BME280;11909;52.516;13.564;2023-04-25T10:30:09;100269.16;;;10.60;48.41
23473;BME280;11909;52.516;13.564;2023-04-25T10:32:41;100261.09;;;10.69;50.67
23473;BME280;11909;52.516;13.564;2023-04-25T10:35:13;100271.09;;;10.59;47.88
23473;BME280;11909;52.516;13.564;2023-04-25T10:37:59;100273.13;;;10.49;48.22
23473;BME280;11909;52.516;13.564;2023-04-25T10:40:27;100258.59;;;10.48;49.51
23473;BME280;11909;52.516;13.564;2023-04-25T10:42:55;100271.88;;;10.36;48.29
23473;BME280;11909;52.516;13.564;2023-04-25T10:45:25;100263.34;;;10.42;50.51
23473;BME280;11909;52.516;13.564;2023-04-25T10:47:54;100274.75;;;10.50;48.71
23473;BME280;11909;52.516;13.564;2023-04-25T10:50:37;100277.00;;;10.47;49.69
23473;BME280;11909;52.516;13.564;2023-04-25T10:53:14;100281.66;;;10.47;48.68
23473;BME280;11909;52.516;13.564;2023-04-25T10:55:49;100280.53;;;10.48;48.20
23473;BME280;11909;52.516;13.564;2023-04-25T10:58:21;100290.25;;;10.40;49.01
23473;BME280;11909;52.516;13.564;2023-04-25T11:00:51;100291.56;;;10.43;47.56
23473;BME280;11909;52.516;13.564;2023-04-25T11:03:41;100290.56;;;10.33;48.25
23473;BME280;11909;52.516;13.564;2023-04-25T11:06:20;100304.78;;;10.36;46.84
23473;BME280;11909;52.516;13.564;2023-04-25T11:08:50;100296.53;;;10.41;48.31
23473;BME280;11909;52.516;13.564;2023-04-25T11:11:19;100302.25;;;10.44;46.87
23473;BME280;11909;52.516;13.564;2023-04-25T11:13:48;100300.09;;;10.41;46.59
23473;BME280;11909;52.516;13.564;2023-04-25T11:16:18;100301.75;;;10.37;48.13
23473;BME280;11909;52.516;13.564;2023-04-25T11:18:50;100300.66;;;10.38;48.10
23473;BME280;11909;52.516;13.564;2023-04-25T11:21:18;100306.34;;;10.47;46.95
23473;BME280;11909;52.516;13.564;2023-04-25T11:23:46;100302.19;;;10.50;46.63
23473;BME280;11909;52.516;13.564;2023-04-25T11:26:14;100315.78;;;10.60;47.95
23473;BME280;11909;52.516;13.564;2023-04-25T11:28:45;100323.28;;;10.54;45.31
23473;BME280;11909;52.516;13.564;2023-04-25T11:31:13;100328.16;;;10.28;46.83
23473;BME280;11909;52.516;13.564;2023-04-25T11:33:43;100329.91;;;10.18;47.86
23473;BME280;11909;52.516;13.564;2023-04-25T11:36:11;100338.84;;;10.00;47.51
23473;BME280;11909;52.516;13.564;2023-04-25T11:38:40;100341.16;;;9.82;49.28
23473;BME280;11909;52.516;13.564;2023-04-25T11:41:08;100339.84;;;9.74;49.92
23473;BME280;11909;52.516;13.564;2023-04-25T11:43:36;100344.50;;;9.74;48.24
23473;BME280;11909;52.516;13.564;2023-04-25T11:46:08;100344.25;;;9.70;47.66
23473;BME280;11909;52.516;13.564;2023-04-25T11:48:39;100351.09;;;9.73;47.65
23473;BME280;11909;52.516;13.564;2023-04-25T11:51:09;100349.16;;;9.73;47.94
23473;BME280;11909;52.516;13.564;2023-04-25T11:53:40;100346.19;;;9.70;46.90
23473;BME280;11909;52.516;13.564;2023-04-25T11:56:10;100362.34;;;9.71;46.36
23473;BME280;11909;52.516;13.564;2023-04-25T11:58:55;100352.22;;;9.67;45.90
23473;BME280;11909;52.516;13.564;2023-04-25T12:01:27;100358.97;;;9.80;47.37
23473;BME280;11909;52.516;13.564;2023-04-25T12:03:58;100364.09;;;9.92;45.53
23473;BME280;11909;52.516;13.564;2023-04-25T12:06:39;100371.78;;;9.89;45.35
23473;BME280;11909;52.516;13.564;2023-04-25T12:09:09;100367.41;;;9.88;46.39
23473;BME280;11909;52.516;13.564;2023-04-25T12:11:43;100363.03;;;9.93;45.45
23473;BME280;11909;52.516;13.564;2023-04-25T12:14:20;100363.25;;;9.96;45.46
23473;BME280;11909;52.516;13.564;2023-04-25T12:16:50;100360.97;;;10.09;46.91
23473;BME280;11909;52.516;13.564;2023-04-25T12:19:20;100360.41;;;10.12;46.92
23473;BME280;11909;52.516;13.564;2023-04-25T12:21:50;100364.69;;;10.23;46.21
23473;BME280;11909;52.516;13.564;2023-04-25T12:24:26;100359.28;;;10.13;48.05
23473;BME280;11909;52.516;13.564;2023-04-25T12:26:59;100378.66;;;10.27;45.95
23473;BME280;11909;52.516;13.564;2023-04-25T12:29:30;100361.41;;;10.21;46.91
23473;BME280;11909;52.516;13.564;2023-04-25T12:32:14;100377.91;;;10.16;46.68
23473;BME280;11909;52.516;13.564;2023-04-25T12:34:42;100384.22;;;10.16;46.27
23473;BME280;11909;52.516;13.564;2023-04-25T12:37:12;100372.69;;;10.14;46.38
23473;BME280;11909;52.516;13.564;2023-04-25T12:39:40;100374.06;;;10.17;46.57
23473;BME280;11909;52.516;13.564;2023-04-25T12:42:09;100369.19;;;10.09;45.97
23473;BME280;11909;52.516;13.564;2023-04-25T12:44:39;100371.91;;;10.14;45.64
23473;BME280;11909;52.516;13.564;2023-04-25T12:47:07;100375.13;;;10.21;46.12
23473;BME280;11909;52.516;13.564;2023-04-25T12:49:36;100378.03;;;10.40;44.19
23473;BME280;11909;52.516;13.564;2023-04-25T12:52:04;100382.59;;;10.50;44.27
23473;BME280;11909;52.516;13.564;2023-04-25T12:54:33;100371.41;;;10.71;44.26
23473;BME280;11909;52.516;13.564;2023-04-25T12:57:02;100374.91;;;10.76;44.36
23473;BME280;11909;52.516;13.564;2023-04-25T12:59:31;100379.81;;;10.80;44.47
23473;BME280;11909;52.516;13.564;2023-04-25T13:01:59;100377.59;;;10.82;43.10